sensor_id;sensor_type;location;lat;lon;timestamp;pressure;altitude;pressure_sealevel;temperature;humidity
10064;BME280;5071;52.360;13.134;2023-10-08T00:04:53;101339.03;;;11.55;100.00
10064;BME280;5071;52.360;13.134;2023-10-08T00:09:57;101334.59;;;11.52;100.00
10064;BME280;5071;52.360;13.134;2023-10-08T00:14:59;101330.91;;;11.75;100.00
10064;BME280;5071;52.360;13.134;2023-10-08T00:20:01;101342.69;;;11.40;100.00
10064;BME280;5071;52.360;13.134;2023-10-08T00:25:06;101339.97;;;11.46;100.00
10064;BME280;5071;52.360;13.134;2023-10-08T00:30:09;101349.78;;;11.32;100.00
10064;BME280;5071;52.360;13.134;2023-10-08T00:35:11;101352.50;;;11.25;100.00
10064;BME280;5071;52.360;13.134;2023-10-08T00:40:14;101354.28;;;11.23;100.00
10064;BME280;5071;52.360;13.134;2023-10-08T00:45:17;101361.44;;;11.12;100.00
10064;BME280;5071;52.360;13.134;2023-10-08T00:50:19;101354.38;;;11.03;100.00
10064;BME280;5071;52.360;13.134;2023-10-08T00:55:23;101370.22;;;11.26;100.00
10064;BME280;5071;52.360;13.134;2023-10-08T01:00:26;101371.09;;;11.28;100.00
10064;BME280;5071;52.360;13.134;2023-10-08T01:05:28;101376.38;;;11.39;100.00
10064;BME280;5071;52.360;13.134;2023-10-08T01:10:31;101367.44;;;11.48;100.00
10064;BME280;5071;52.360;13.134;2023-10-08T01:15:33;101378.00;;;11.54;100.00
10064;BME280;5071;52.360;13.134;2023-10-08T01:20:36;101400.19;;;11.52;100.00
10064;BME280;5071;52.360;13.134;2023-10-08T01:25:39;101400.97;;;11.72;100.00
10064;BME280;5071;52.360;13.134;2023-10-08T01:30:42;101413.44;;;11.64;100.00
10064;BME280;5071;52.360;13.134;2023-10-08T01:35:44;101416.25;;;11.33;100.00
10064;BME280;5071;52.360;13.134;2023-10-08T01:40:48;101430.34;;;11.47;100.00
10064;BME280;5071;52.360;13.134;2023-10-08T01:45:50;101429.41;;;11.58;100.00
10064;BME280;5071;52.360;13.134;2023-10-08T01:50:54;101429.41;;;11.58;100.00
10064;BME280;5071;52.360;13.134;2023-10-08T01:55:57;101421.56;;;11.32;100.00
10064;BME280;5071;52.360;13.134;2023-10-08T02:00:59;101451.69;;;11.31;100.00
10064;BME280;5071;52.360;13.134;2023-10-08T02:06:02;101465.88;;;11.36;100.00
10064;BME280;5071;52.360;13.134;2023-10-08T02:11:05;101474.69;;;11.44;100.00
10064;BME280;5071;52.360;13.134;2023-10-08T02:16:09;101464.06;;;11.41;100.00
10064;BME280;5071;52.360;13.134;2023-10-08T02:21:11;101459.72;;;11.14;100.00
10064;BME280;5071;52.360;13.134;2023-10-08T02:26:15;101460.56;;;11.36;100.00
10064;BME280;5071;52.360;13.134;2023-10-08T02:31:17;101501.34;;;11.07;100.00
10064;BME280;5071;52.360;13.134;2023-10-08T02:36:19;101508.47;;;11.02;100.00
10064;BME280;5071;52.360;13.134;2023-10-08T02:41:23;101511.09;;;11.16;100.00
10064;BME280;5071;52.360;13.134;2023-10-08T02:46:25;101502.19;;;11.29;100.00
10064;BME280;5071;52.360;13.134;2023-10-08T02:51:27;101495.16;;;11.05;100.00
10064;BME280;5071;52.360;13.134;2023-10-08T02:56:31;101503.09;;;11.26;100.00
10064;BME280;5071;52.360;13.134;2023-10-08T03:01:33;101504.03;;;11.13;100.00
10064;BME280;5071;52.360;13.134;2023-10-08T03:06:36;101503.97;;;11.27;100.00
10064;BME280;5071;52.360;13.134;2023-10-08T03:11:39;101532.34;;;11.16;100.00
10064;BME280;5071;52.360;13.134;2023-10-08T03:16:42;101509.34;;;11.12;100.00
10064;BME280;5071;52.360;13.134;2023-10-08T03:21:44;101494.28;;;11.12;100.00
10064;BME280;5071;52.360;13.134;2023-10-08T03:26:48;101494.28;;;11.00;100.00
10064;BME280;5071;52.360;13.134;2023-10-08T03:31:50;101519.06;;;11.17;100.00
10064;BME280;5071;52.360;13.134;2023-10-08T03:36:52;101521.75;;;10.94;100.00
10064;BME280;5071;52.360;13.134;2023-10-08T03:41:56;101543.03;;;11.02;100.00
10064;BME280;5071;52.360;13.134;2023-10-08T03:46:58;101550.09;;;11.06;100.00
10064;BME280;5071;52.360;13.134;2023-10-08T03:52:00;101566.94;;;11.02;100.00
10064;BME280;5071;52.360;13.134;2023-10-08T03:57:04;101621.75;;;11.43;100.00
10064;BME280;5071;52.360;13.134;2023-10-08T04:02:06;101597.81;;;11.57;100.00
10064;BME280;5071;52.360;13.134;2023-10-08T04:07:08;101601.41;;;11.34;100.00
10064;BME280;5071;52.360;13.134;2023-10-08T04:12:11;101607.59;;;11.41;100.00
10064;BME280;5071;52.360;13.134;2023-10-08T04:17:14;101613.81;;;11.29;100.00
10064;BME280;5071;52.360;13.134;2023-10-08T04:22:16;101638.63;;;11.31;100.00
10064;BME280;5071;52.360;13.134;2023-10-08T04:27:19;101639.50;;;11.42;100.00
10064;BME280;5071;52.360;13.134;2023-10-08T04:32:22;101643.94;;;11.29;100.00
10064;BME280;5071;52.360;13.134;2023-10-08T04:37:24;101654.56;;;11.37;100.00
10064;BME280;5071;52.360;13.134;2023-10-08T04:42:28;101663.44;;;11.28;100.00
10064;BME280;5071;52.360;13.134;2023-10-08T04:47:30;101666.97;;;11.27;100.00
10064;BME280;5071;52.360;13.134;2023-10-08T04:52:32;101659.00;;;11.35;100.00
10064;BME280;5071;52.360;13.134;2023-10-08T04:57:36;101667.88;;;11.02;100.00
10064;BME280;5071;52.360;13.134;2023-10-08T05:02:38;101650.16;;;11.19;100.00
10064;BME280;5071;52.360;13.134;2023-10-08T05:07:40;101701.53;;;11.31;100.00
10064;BME280;5071;52.360;13.134;2023-10-08T05:12:44;101704.16;;;10.92;100.00
10064;BME280;5071;52.360;13.134;2023-10-08T05:17:47;101712.97;;;10.73;100.00
10064;BME280;5071;52.360;13.134;2023-10-08T05:22:49;101719.19;;;10.79;100.00
10064;BME280;5071;52.360;13.134;2023-10-08T05:27:53;101744.00;;;10.81;100.00
10064;BME280;5071;52.360;13.134;2023-10-08T05:32:56;101738.63;;;10.75;100.00
10064;BME280;5071;52.360;13.134;2023-10-08T05:37:58;101759.84;;;10.63;100.00
10064;BME280;5071;52.360;13.134;2023-10-08T05:43:01;101756.31;;;10.61;100.00
10064;BME280;5071;52.360;13.134;2023-10-08T05:48:04;101762.59;;;10.95;100.00
10064;BME280;5071;52.360;13.134;2023-10-08T05:53:06;101761.66;;;10.81;100.00
10064;BME280;5071;52.360;13.134;2023-10-08T05:58:09;101780.31;;;10.98;100.00
10064;BME280;5071;52.360;13.134;2023-10-08T06:03:11;101788.34;;;11.18;100.00
10064;BME280;5071;52.360;13.134;2023-10-08T06:08:13;101809.66;;;11.68;100.00
10064;BME280;5071;52.360;13.134;2023-10-08T06:13:16;101816.75;;;11.82;100.00
10064;BME280;5071;52.360;13.134;2023-10-08T06:18:20;101849.56;;;11.84;100.00
10064;BME280;5071;52.360;13.134;2023-10-08T06:23:23;101843.41;;;12.03;100.00
10064;BME280;5071;52.360;13.134;2023-10-08T06:28:27;101846.91;;;12.19;100.00
10064;BME280;5071;52.360;13.134;2023-10-08T06:33:29;101849.56;;;12.19;100.00
10064;BME280;5071;52.360;13.134;2023-10-08T06:38:32;101871.78;;;12.01;100.00
10064;BME280;5071;52.360;13.134;2023-10-08T06:43:36;101873.56;;;12.05;100.00
10064;BME280;5071;52.360;13.134;2023-10-08T06:48:38;101889.47;;;12.47;100.00
10064;BME280;5071;52.360;13.134;2023-10-08T06:53:41;101902.81;;;12.25;100.00
10064;BME280;5071;52.360;13.134;2023-10-08T06:58:45;101901.06;;;12.11;100.00
10064;BME280;5071;52.360;13.134;2023-10-08T07:03:48;101912.59;;;12.19;100.00
10064;BME280;5071;52.360;13.134;2023-10-08T07:08:52;101923.19;;;11.85;100.00
10064;BME280;5071;52.360;13.134;2023-10-08T07:13:55;101925.84;;;11.85;100.00
10064;BME280;5071;52.360;13.134;2023-10-08T07:18:57;101940.88;;;11.77;100.00
10064;BME280;5071;52.360;13.134;2023-10-08T07:23:59;101948.84;;;11.66;100.00
10064;BME280;5071;52.360;13.134;2023-10-08T07:29:04;101954.19;;;11.80;100.00
10064;BME280;5071;52.360;13.134;2023-10-08T07:34:07;101957.72;;;11.73;100.00
10064;BME280;5071;52.360;13.134;2023-10-08T07:39:08;101969.22;;;11.62;100.00
10064;BME280;5071;52.360;13.134;2023-10-08T07:44:12;101975.56;;;11.94;100.00
10064;BME280;5071;52.360;13.134;2023-10-08T07:49:14;101978.22;;;12.00;100.00
10064;BME280;5071;52.360;13.134;2023-10-08T07:54:16;101977.31;;;11.93;99.24
10064;BME280;5071;52.360;13.134;2023-10-08T07:59:19;101988.78;;;11.86;94.25
10064;BME280;5071;52.360;13.134;2023-10-08T08:04:21;101994.16;;;11.95;95.76
10064;BME280;5071;52.360;13.134;2023-10-08T08:09:23;101997.63;;;11.70;95.62
10064;BME280;5071;52.360;13.134;2023-10-08T08:14:27;102008.28;;;11.76;95.18
10064;BME280;5071;52.360;13.134;2023-10-08T08:19:29;102001.25;;;11.93;91.65
10064;BME280;5071;52.360;13.134;2023-10-08T08:24:31;102014.63;;;12.16;87.67
10064;BME280;5071;52.360;13.134;2023-10-08T08:29:35;102013.72;;;12.13;84.84
10064;BME280;5071;52.360;13.134;2023-10-08T08:34:37;102032.22;;;11.80;89.04
10064;BME280;5071;52.360;13.134;2023-10-08T08:39:39;102032.41;;;12.51;82.71
10064;BME280;5071;52.360;13.134;2023-10-08T08:44:44;102036.84;;;12.51;83.96
10064;BME280;5071;52.360;13.134;2023-10-08T08:49:47;102043.03;;;12.67;86.72
10064;BME280;5071;52.360;13.134;2023-10-08T08:54:50;102038.59;;;12.52;82.87
10064;BME280;5071;52.360;13.134;2023-10-08T08:59:55;102042.13;;;12.18;86.77
10064;BME280;5071;52.360;13.134;2023-10-08T09:05:00;102047.44;;;13.15;80.08
10064;BME280;5071;52.360;13.134;2023-10-08T09:10:01;102045.72;;;12.53;81.49
10064;BME280;5071;52.360;13.134;2023-10-08T09:15:06;102055.47;;;12.64;78.36
10064;BME280;5071;52.360;13.134;2023-10-08T09:20:09;102060.81;;;12.88;75.88
10064;BME280;5071;52.360;13.134;2023-10-08T09:25:11;102068.75;;;13.34;71.98
10064;BME280;5071;52.360;13.134;2023-10-08T09:30:15;102066.97;;;13.34;65.61
10064;BME280;5071;52.360;13.134;2023-10-08T09:35:17;102070.56;;;13.33;65.83
10064;BME280;5071;52.360;13.134;2023-10-08T09:40:20;102073.19;;;13.22;63.47
10064;BME280;5071;52.360;13.134;2023-10-08T09:45:24;102085.94;;;14.64;59.48
10064;BME280;5071;52.360;13.134;2023-10-08T09:50:28;102090.63;;;17.26;48.85
10064;BME280;5071;52.360;13.134;2023-10-08T09:55:31;102096.19;;;19.18;48.55
10064;BME280;5071;52.360;13.134;2023-10-08T10:00:35;102100.44;;;19.28;46.03
10064;BME280;5071;52.360;13.134;2023-10-08T10:05:38;102108.81;;;20.13;38.96
10064;BME280;5071;52.360;13.134;2023-10-08T10:10:39;102118.84;;;20.37;36.58
10064;BME280;5071;52.360;13.134;2023-10-08T10:15:43;102108.56;;;20.20;37.23
10064;BME280;5071;52.360;13.134;2023-10-08T10:20:51;102119.78;;;20.07;35.95
10064;BME280;5071;52.360;13.134;2023-10-08T10:25:56;102117.94;;;21.72;34.39
10064;BME280;5071;52.360;13.134;2023-10-08T10:31:00;102112.59;;;21.19;34.75
10064;BME280;5071;52.360;13.134;2023-10-08T10:36:05;102133.75;;;20.49;35.03
10064;BME280;5071;52.360;13.134;2023-10-08T10:41:08;102127.38;;;18.92;37.32
10064;BME280;5071;52.360;13.134;2023-10-08T10:46:11;102132.06;;;19.86;37.66
10064;BME280;5071;52.360;13.134;2023-10-08T10:51:13;102129.88;;;20.30;38.62
10064;BME280;5071;52.360;13.134;2023-10-08T10:56:15;102129.75;;;20.63;35.81
10064;BME280;5071;52.360;13.134;2023-10-08T11:01:22;102131.34;;;19.13;38.64
10064;BME280;5071;52.360;13.134;2023-10-08T11:06:26;102127.25;;;19.31;39.14
10064;BME280;5071;52.360;13.134;2023-10-08T11:11:28;102122.06;;;18.89;39.25
10064;BME280;5071;52.360;13.134;2023-10-08T11:16:32;102112.38;;;18.82;40.34
10064;BME280;5071;52.360;13.134;2023-10-08T11:21:48;102104.25;;;17.60;42.04
10064;BME280;5071;52.360;13.134;2023-10-08T11:26:49;102102.81;;;17.91;41.95
10064;BME280;5071;52.360;13.134;2023-10-08T11:31:53;102110.91;;;17.89;41.21
10064;BME280;5071;52.360;13.134;2023-10-08T11:36:56;102115.81;;;17.17;45.25
10064;BME280;5071;52.360;13.134;2023-10-08T11:41:58;102124.09;;;18.00;43.77
10064;BME280;5071;52.360;13.134;2023-10-08T11:47:03;102114.44;;;17.43;44.76
10064;BME280;5071;52.360;13.134;2023-10-08T11:52:05;102109.59;;;17.63;41.36
10064;BME280;5071;52.360;13.134;2023-10-08T11:57:07;102120.91;;;18.23;41.56
10064;BME280;5071;52.360;13.134;2023-10-08T12:02:11;102112.28;;;17.62;42.60
10064;BME280;5071;52.360;13.134;2023-10-08T12:07:13;102125.81;;;17.07;43.06
10064;BME280;5071;52.360;13.134;2023-10-08T12:12:15;102118.91;;;16.94;45.15
10064;BME280;5071;52.360;13.134;2023-10-08T12:17:18;102108.66;;;17.19;45.54
10064;BME280;5071;52.360;13.134;2023-10-08T12:22:20;102107.75;;;18.09;43.15
10064;BME280;5071;52.360;13.134;2023-10-08T12:27:23;102092.00;;;17.92;42.36
10064;BME280;5071;52.360;13.134;2023-10-08T12:32:27;102084.34;;;17.74;40.45
10064;BME280;5071;52.360;13.134;2023-10-08T12:37:29;102089.69;;;18.17;43.12
10064;BME280;5071;52.360;13.134;2023-10-08T12:42:31;102090.94;;;18.01;40.60
10064;BME280;5071;52.360;13.134;2023-10-08T12:47:34;102086.69;;;16.38;44.96
10064;BME280;5071;52.360;13.134;2023-10-08T12:52:36;102083.94;;;18.33;39.86
10064;BME280;5071;52.360;13.134;2023-10-08T12:57:38;102087.06;;;18.53;41.86
10064;BME280;5071;52.360;13.134;2023-10-08T13:02:42;102090.41;;;17.37;42.54
10064;BME280;5071;52.360;13.134;2023-10-08T13:07:44;102085.56;;;17.56;43.79
10064;BME280;5071;52.360;13.134;2023-10-08T13:12:46;102071.38;;;17.94;42.89
10064;BME280;5071;52.360;13.134;2023-10-08T13:17:50;102076.97;;;17.83;42.72
10064;BME280;5071;52.360;13.134;2023-10-08T13:22:52;102075.25;;;18.21;41.46
10064;BME280;5071;52.360;13.134;2023-10-08T13:27:54;102077.94;;;17.79;43.63
10064;BME280;5071;52.360;13.134;2023-10-08T13:32:57;102068.97;;;17.79;41.23
10064;BME280;5071;52.360;13.134;2023-10-08T13:37:59;102078.84;;;17.33;41.68
10064;BME280;5071;52.360;13.134;2023-10-08T13:43:01;102079.88;;;16.75;44.29
10064;BME280;5071;52.360;13.134;2023-10-08T13:48:05;102081.53;;;16.24;44.33
10064;BME280;5071;52.360;13.134;2023-10-08T13:53:08;102071.31;;;16.51;45.31
10064;BME280;5071;52.360;13.134;2023-10-08T13:58:09;102090.41;;;16.29;45.71
10064;BME280;5071;52.360;13.134;2023-10-08T14:03:13;102095.94;;;16.14;48.50
10064;BME280;5071;52.360;13.134;2023-10-08T14:08:16;102089.81;;;16.66;46.40
10064;BME280;5071;52.360;13.134;2023-10-08T14:13:18;102074.91;;;17.51;44.93
10064;BME280;5071;52.360;13.134;2023-10-08T14:18:22;102090.34;;;17.86;41.70
10064;BME280;5071;52.360;13.134;2023-10-08T14:23:24;102081.81;;;18.08;43.98
10064;BME280;5071;52.360;13.134;2023-10-08T14:28:26;102084.66;;;18.02;44.07
10064;BME280;5071;52.360;13.134;2023-10-08T14:33:30;102079.00;;;18.14;43.52
10064;BME280;5071;52.360;13.134;2023-10-08T14:38:33;102065.34;;;18.23;43.15
10064;BME280;5071;52.360;13.134;2023-10-08T14:43:35;102071.13;;;18.45;43.59
10064;BME280;5071;52.360;13.134;2023-10-08T14:48:38;102079.41;;;17.94;43.43
10064;BME280;5071;52.360;13.134;2023-10-08T14:53:41;102072.03;;;17.15;43.19
10064;BME280;5071;52.360;13.134;2023-10-08T14:58:43;102082.56;;;17.26;43.44
10064;BME280;5071;52.360;13.134;2023-10-08T15:03:46;102081.22;;;17.00;45.78
10064;BME280;5071;52.360;13.134;2023-10-08T15:08:49;102079.47;;;16.43;45.92
10064;BME280;5071;52.360;13.134;2023-10-08T15:13:51;102081.28;;;15.76;48.10
10064;BME280;5071;52.360;13.134;2023-10-08T15:18:54;102088.00;;;15.32;49.92
10064;BME280;5071;52.360;13.134;2023-10-08T15:23:56;102081.03;;;15.17;51.59
10064;BME280;5071;52.360;13.134;2023-10-08T15:28:57;102089.00;;;15.22;51.71
10064;BME280;5071;52.360;13.134;2023-10-08T15:34:04;102092.16;;;14.68;51.24
10064;BME280;5071;52.360;13.134;2023-10-08T15:39:07;102091.09;;;14.87;51.90
10064;BME280;5071;52.360;13.134;2023-10-08T15:44:09;102104.41;;;14.93;51.08
10064;BME280;5071;52.360;13.134;2023-10-08T15:49:13;102105.34;;;14.91;51.40
10064;BME280;5071;52.360;13.134;2023-10-08T15:54:15;102100.13;;;14.75;52.87
10064;BME280;5071;52.360;13.134;2023-10-08T15:59:18;102108.44;;;14.20;55.50
10064;BME280;5071;52.360;13.134;2023-10-08T16:04:21;102103.16;;;14.11;59.49
10064;BME280;5071;52.360;13.134;2023-10-08T16:09:23;102119.31;;;13.80;58.60
10064;BME280;5071;52.360;13.134;2023-10-08T16:14:25;102115.66;;;13.99;65.76
10064;BME280;5071;52.360;13.134;2023-10-08T16:19:29;102124.75;;;13.45;69.87
10064;BME280;5071;52.360;13.134;2023-10-08T16:24:31;102117.66;;;12.85;71.66
10064;BME280;5071;52.360;13.134;2023-10-08T16:29:34;102120.31;;;13.11;73.66
10064;BME280;5071;52.360;13.134;2023-10-08T16:34:37;102120.31;;;12.83;74.11
10064;BME280;5071;52.360;13.134;2023-10-08T16:39:40;102116.78;;;12.77;72.07
10064;BME280;5071;52.360;13.134;2023-10-08T16:44:42;102113.19;;;12.78;74.28
10064;BME280;5071;52.360;13.134;2023-10-08T16:49:45;102117.56;;;12.22;76.50
10064;BME280;5071;52.360;13.134;2023-10-08T16:54:47;102118.41;;;12.13;80.12
10064;BME280;5071;52.360;13.134;2023-10-08T16:59:49;102113.00;;;11.93;82.22
10064;BME280;5071;52.360;13.134;2023-10-08T17:04:52;102120.06;;;11.88;86.14
10064;BME280;5071;52.360;13.134;2023-10-08T17:09:57;102110.28;;;11.81;87.34
10064;BME280;5071;52.360;13.134;2023-10-08T17:14:59;102100.47;;;11.77;89.32
10064;BME280;5071;52.360;13.134;2023-10-08T17:20:04;102114.94;;;12.50;81.03
10064;BME280;5071;52.360;13.134;2023-10-08T17:25:06;102111.31;;;12.08;83.77
10064;BME280;5071;52.360;13.134;2023-10-08T17:30:09;102093.41;;;11.76;87.34
10064;BME280;5071;52.360;13.134;2023-10-08T17:35:13;102084.59;;;11.89;87.13
10064;BME280;5071;52.360;13.134;2023-10-08T17:40:15;102090.72;;;11.71;87.33
10064;BME280;5071;52.360;13.134;2023-10-08T17:45:17;102086.13;;;11.42;89.58
10064;BME280;5071;52.360;13.134;2023-10-08T17:50:20;102066.56;;;11.29;90.10
10064;BME280;5071;52.360;13.134;2023-10-08T17:55:22;102053.50;;;11.80;89.91
10064;BME280;5071;52.360;13.134;2023-10-08T18:00:24;102065.91;;;11.72;89.38
10064;BME280;5071;52.360;13.134;2023-10-08T18:05:30;102086.25;;;11.65;89.91
10064;BME280;5071;52.360;13.134;2023-10-08T18:10:32;102068.47;;;11.49;89.47
10064;BME280;5071;52.360;13.134;2023-10-08T18:15:34;102052.34;;;11.21;90.71
10064;BME280;5071;52.360;13.134;2023-10-08T18:20:37;102039.91;;;11.14;91.41
10064;BME280;5071;52.360;13.134;2023-10-08T18:25:39;102046.94;;;11.06;91.98
10064;BME280;5071;52.360;13.134;2023-10-08T18:30:42;102036.28;;;11.03;93.09
10064;BME280;5071;52.360;13.134;2023-10-08T18:35:45;102035.38;;;10.96;93.99
10064;BME280;5071;52.360;13.134;2023-10-08T18:40:47;102042.44;;;10.93;93.38
10064;BME280;5071;52.360;13.134;2023-10-08T18:45:49;102053.75;;;10.73;94.81
10064;BME280;5071;52.360;13.134;2023-10-08T18:50:53;102053.81;;;10.78;94.39
10064;BME280;5071;52.360;13.134;2023-10-08T18:56:02;102044.97;;;10.80;93.00
10064;BME280;5071;52.360;13.134;2023-10-08T19:01:04;102039.66;;;10.80;95.44
10064;BME280;5071;52.360;13.134;2023-10-08T19:06:08;102046.66;;;10.69;96.49
10064;BME280;5071;52.360;13.134;2023-10-08T19:11:10;102032.47;;;10.67;96.54
10064;BME280;5071;52.360;13.134;2023-10-08T19:16:13;102015.66;;;10.65;96.80
10064;BME280;5071;52.360;13.134;2023-10-08T19:21:17;102000.63;;;10.68;97.03
10064;BME280;5071;52.360;13.134;2023-10-08T19:26:20;101996.13;;;10.58;96.90
10064;BME280;5071;52.360;13.134;2023-10-08T19:31:22;101985.50;;;10.58;98.31
10064;BME280;5071;52.360;13.134;2023-10-08T19:36:26;101994.91;;;10.24;98.68
10064;BME280;5071;52.360;13.134;2023-10-08T19:41:29;101994.78;;;10.08;100.00
10064;BME280;5071;52.360;13.134;2023-10-08T19:46:31;101998.34;;;10.10;100.00
10064;BME280;5071;52.360;13.134;2023-10-08T19:51:34;101999.34;;;10.23;100.00
10064;BME280;5071;52.360;13.134;2023-10-08T19:56:36;101989.66;;;10.30;100.00
10064;BME280;5071;52.360;13.134;2023-10-08T20:01:38;101992.53;;;10.50;100.00
10064;BME280;5071;52.360;13.134;2023-10-08T20:06:42;101991.91;;;10.89;97.12
10064;BME280;5071;52.360;13.134;2023-10-08T20:11:43;101988.31;;;10.78;98.24
10064;BME280;5071;52.360;13.134;2023-10-08T20:16:45;101979.59;;;11.01;97.55
10064;BME280;5071;52.360;13.134;2023-10-08T20:21:49;101977.81;;;11.03;96.61
10064;BME280;5071;52.360;13.134;2023-10-08T20:26:50;101970.75;;;11.02;95.12
10064;BME280;5071;52.360;13.134;2023-10-08T20:31:53;101965.34;;;10.89;95.30
10064;BME280;5071;52.360;13.134;2023-10-08T20:36:56;101975.91;;;10.80;94.70
10064;BME280;5071;52.360;13.134;2023-10-08T20:41:58;101962.66;;;10.86;94.98
10064;BME280;5071;52.360;13.134;2023-10-08T20:47:00;101969.69;;;10.77;94.50
10064;BME280;5071;52.360;13.134;2023-10-08T20:52:03;101974.03;;;10.64;94.43
10064;BME280;5071;52.360;13.134;2023-10-08T20:57:05;101986.41;;;10.62;93.89
10064;BME280;5071;52.360;13.134;2023-10-08T21:02:07;101972.22;;;10.57;94.67
10064;BME280;5071;52.360;13.134;2023-10-08T21:07:10;101950.13;;;10.64;95.40
10064;BME280;5071;52.360;13.134;2023-10-08T21:12:12;101947.41;;;10.55;95.74
10064;BME280;5071;52.360;13.134;2023-10-08T21:17:15;101945.66;;;10.54;97.07
10064;BME280;5071;52.360;13.134;2023-10-08T21:22:18;101951.03;;;10.67;98.50
10064;BME280;5071;52.360;13.134;2023-10-08T21:27:20;101934.25;;;10.73;98.67
10064;BME280;5071;52.360;13.134;2023-10-08T21:32:22;101929.16;;;11.12;93.48
10064;BME280;5071;52.360;13.134;2023-10-08T21:37:25;101913.97;;;10.84;96.53
10064;BME280;5071;52.360;13.134;2023-10-08T21:42:27;101894.47;;;10.81;94.36
10064;BME280;5071;52.360;13.134;2023-10-08T21:47:29;101894.53;;;10.92;93.62
10064;BME280;5071;52.360;13.134;2023-10-08T21:52:32;101897.13;;;10.81;94.67
10064;BME280;5071;52.360;13.134;2023-10-08T21:57:35;101892.66;;;10.72;93.98
10064;BME280;5071;52.360;13.134;2023-10-08T22:02:44;101896.16;;;10.65;94.78
10064;BME280;5071;52.360;13.134;2023-10-08T22:07:48;101892.63;;;10.69;94.59
10064;BME280;5071;52.360;13.134;2023-10-08T22:12:50;101892.81;;;10.98;93.07
10064;BME280;5071;52.360;13.134;2023-10-08T22:17:54;101885.66;;;10.83;96.04
10064;BME280;5071;52.360;13.134;2023-10-08T22:22:57;101873.06;;;10.50;97.14
10064;BME280;5071;52.360;13.134;2023-10-08T22:27:59;101871.19;;;10.35;98.55
10064;BME280;5071;52.360;13.134;2023-10-08T22:33:02;101857.97;;;10.44;100.00
10064;BME280;5071;52.360;13.134;2023-10-08T22:38:06;101847.28;;;10.32;100.00
10064;BME280;5071;52.360;13.134;2023-10-08T22:43:08;101829.47;;;10.19;100.00
10064;BME280;5071;52.360;13.134;2023-10-08T22:48:10;101815.44;;;10.34;100.00
10064;BME280;5071;52.360;13.134;2023-10-08T22:53:14;101794.13;;;10.21;100.00
10064;BME280;5071;52.360;13.134;2023-10-08T22:58:16;101766.09;;;10.79;99.68
10064;BME280;5071;52.360;13.134;2023-10-08T23:03:18;101775.03;;;11.01;98.65
10064;BME280;5071;52.360;13.134;2023-10-08T23:08:22;101768.72;;;10.71;100.00
10064;BME280;5071;52.360;13.134;2023-10-08T23:13:24;101769.50;;;10.42;100.00
10064;BME280;5071;52.360;13.134;2023-10-08T23:18:26;101756.13;;;10.27;100.00
10064;BME280;5071;52.360;13.134;2023-10-08T23:23:30;101749.00;;;10.23;100.00
10064;BME280;5071;52.360;13.134;2023-10-08T23:28:32;101745.50;;;10.25;100.00
10064;BME280;5071;52.360;13.134;2023-10-08T23:33:34;101750.81;;;10.28;100.00
10064;BME280;5071;52.360;13.134;2023-10-08T23:38:39;101757.97;;;10.43;100.00
10064;BME280;5071;52.360;13.134;2023-10-08T23:43:42;101759.72;;;10.35;100.00
10064;BME280;5071;52.360;13.134;2023-10-08T23:48:44;101778.13;;;10.09;100.00
10064;BME280;5071;52.360;13.134;2023-10-08T23:53:48;101768.41;;;10.12;100.00
10064;BME280;5071;52.360;13.134;2023-10-08T23:58:50;101769.25;;;10.07;100.00
